createdAt,value
2022-12-04T00:00:39.167Z,24.13
2022-12-04T00:03:07.601Z,30.63
2022-12-04T00:05:35.918Z,29.93
2022-12-04T00:08:03.959Z,30.93
2022-12-04T00:10:31.924Z,31.17
2022-12-04T00:13:01.257Z,33.27
2022-12-04T00:15:29.181Z,29.57
2022-12-04T00:17:57.311Z,29.27
2022-12-04T00:20:25.219Z,34.63
2022-12-04T00:22:53.145Z,32.93
2022-12-04T00:25:21.064Z,29.57
2022-12-04T00:27:48.983Z,28.43
2022-12-04T00:30:18.555Z,27.40
2022-12-04T00:32:46.458Z,31.57
2022-12-04T00:35:14.561Z,35.37
2022-12-04T00:37:42.631Z,28.07
2022-12-04T00:40:11.308Z,30.70
2022-12-04T00:42:39.243Z,30.27
2022-12-04T00:45:08.342Z,30.93
2022-12-04T00:47:37.617Z,34.17
2022-12-04T00:50:06.633Z,33.93
2022-12-04T00:52:34.540Z,32.00
2022-12-04T00:55:02.510Z,31.93
2022-12-04T00:57:30.395Z,36.83
2022-12-04T00:59:58.324Z,26.23
2022-12-04T01:02:26.257Z,33.37
2022-12-04T01:04:55.600Z,29.30
2022-12-04T01:07:23.525Z,42.97
2022-12-04T01:09:51.750Z,31.43
2022-12-04T01:12:21.100Z,35.47
2022-12-04T01:14:49.190Z,32.03
2022-12-04T01:17:17.117Z,27.00
2022-12-04T01:19:45.186Z,31.50
2022-12-04T01:22:14.531Z,30.27
2022-12-04T01:24:42.572Z,26.90
2022-12-04T01:27:10.601Z,33.47
2022-12-04T01:29:38.519Z,24.47
2022-12-04T01:32:06.904Z,30.30
2022-12-04T01:34:36.729Z,26.33
2022-12-04T01:37:04.645Z,26.77
2022-12-04T01:39:33.949Z,30.70
2022-12-04T01:42:01.964Z,25.37
2022-12-04T01:44:32.153Z,29.63
2022-12-04T01:47:01.118Z,27.77
2022-12-04T01:49:32.603Z,27.53
2022-12-04T01:52:03.728Z,27.50
2022-12-04T01:54:35.580Z,26.40
2022-12-04T01:57:07.372Z,26.57
2022-12-04T01:59:40.292Z,26.60
2022-12-04T02:02:10.938Z,30.33
2022-12-04T02:04:40.268Z,25.23
2022-12-04T02:07:08.240Z,24.27
2022-12-04T02:09:39.442Z,26.60
2022-12-04T02:12:13.218Z,26.53
2022-12-04T02:14:46.215Z,26.50
2022-12-04T02:17:19.781Z,22.83
2022-12-04T02:20:00.757Z,24.97
2022-12-04T02:22:47.103Z,25.27
2022-12-04T02:25:22.462Z,28.13
2022-12-04T02:28:05.156Z,28.03
2022-12-04T02:30:34.966Z,25.27
2022-12-04T02:33:06.632Z,25.53
2022-12-04T02:35:37.829Z,28.77
2022-12-04T02:38:10.664Z,21.67
2022-12-04T02:40:43.153Z,27.93
2022-12-04T02:43:16.252Z,26.43
2022-12-04T02:45:47.122Z,25.97
2022-12-04T02:48:18.317Z,27.63
2022-12-04T02:50:47.344Z,22.73
2022-12-04T02:53:19.492Z,27.23
2022-12-04T02:55:50.717Z,24.13
2022-12-04T02:58:24.289Z,28.07
2022-12-04T03:00:53.293Z,28.07
2022-12-04T03:03:24.262Z,26.20
2022-12-04T03:05:57.579Z,27.77
2022-12-04T03:08:29.064Z,26.23
2022-12-04T03:10:58.490Z,29.83
2022-12-04T03:13:32.221Z,28.77
2022-12-04T03:16:03.332Z,24.13
2022-12-04T03:18:34.244Z,27.50
2022-12-04T03:21:04.852Z,25.47
2022-12-04T03:23:35.382Z,30.13
2022-12-04T03:26:09.187Z,27.13
2022-12-04T03:28:43.872Z,27.87
2022-12-04T03:31:12.480Z,27.50
2022-12-04T03:33:43.581Z,27.90
2022-12-04T03:36:16.424Z,30.73
2022-12-04T03:38:48.714Z,27.87
2022-12-04T03:41:22.643Z,25.87
2022-12-04T03:43:54.592Z,25.73
2022-12-04T03:46:28.397Z,27.30
2022-12-04T03:49:01.904Z,27.53
2022-12-04T03:51:34.513Z,28.17
2022-12-04T03:54:06.855Z,25.00
2022-12-04T03:56:37.936Z,23.20
2022-12-04T03:59:11.499Z,24.60
2022-12-04T04:01:44.049Z,22.47
2022-12-04T04:04:16.808Z,27.37
2022-12-04T04:06:48.425Z,26.37
2022-12-04T04:09:19.962Z,24.10
2022-12-04T04:11:50.632Z,23.33
2022-12-04T04:14:41.206Z,27.03
2022-12-04T04:17:29.678Z,26.07
2022-12-04T04:20:20.688Z,24.47
2022-12-04T04:23:06.935Z,20.20
2022-12-04T04:25:38.156Z,26.60
2022-12-04T04:28:06.040Z,25.33
2022-12-04T04:30:35.975Z,30.00
2022-12-04T04:33:07.730Z,22.20
2022-12-04T04:35:42.153Z,24.57
2022-12-04T04:38:15.107Z,24.50
2022-12-04T04:40:49.232Z,21.20
2022-12-04T04:43:21.097Z,26.63
2022-12-04T04:45:54.155Z,24.60
2022-12-04T04:48:25.516Z,21.93
2022-12-04T04:50:54.165Z,22.40
2022-12-04T04:53:26.899Z,21.63
2022-12-04T04:55:55.030Z,23.33
2022-12-04T04:58:23.120Z,22.97
2022-12-04T05:00:58.207Z,23.90
2022-12-04T05:03:26.226Z,24.67
2022-12-04T05:05:54.362Z,26.03
2022-12-04T05:08:22.312Z,25.80
2022-12-04T05:10:50.519Z,26.50
2022-12-04T05:13:19.449Z,27.53
2022-12-04T05:15:59.078Z,31.60
2022-12-04T05:18:27.007Z,22.83
2022-12-04T05:20:54.036Z,26.37
2022-12-04T05:23:22.025Z,24.93
2022-12-04T05:25:49.971Z,25.47
2022-12-04T05:28:18.398Z,26.20
2022-12-04T05:30:46.354Z,22.80
2022-12-04T05:33:15.631Z,21.67
2022-12-04T05:35:43.535Z,22.07
2022-12-04T05:38:11.468Z,26.60
2022-12-04T05:40:39.500Z,23.43
2022-12-04T05:43:07.373Z,24.37
2022-12-04T05:45:35.480Z,24.57
2022-12-04T05:48:03.371Z,28.63
2022-12-04T05:50:32.679Z,23.93
2022-12-04T05:53:00.590Z,20.87
2022-12-04T05:55:28.592Z,26.40
2022-12-04T05:57:56.484Z,23.80
2022-12-04T06:00:24.619Z,22.97
2022-12-04T06:02:52.594Z,20.70
2022-12-04T06:05:20.565Z,25.80
2022-12-04T06:07:50.114Z,24.47
2022-12-04T06:10:18.141Z,25.93
2022-12-04T06:12:46.101Z,25.47
2022-12-04T06:15:14.025Z,25.87
2022-12-04T06:17:41.947Z,25.20
2022-12-04T06:20:11.913Z,26.03
2022-12-04T06:22:40.135Z,24.40
2022-12-04T06:25:10.589Z,23.20
2022-12-04T06:27:38.485Z,23.87
2022-12-04T06:30:07.518Z,23.00
2022-12-04T06:32:35.547Z,23.87
2022-12-04T06:35:04.252Z,27.57
2022-12-04T06:37:32.217Z,23.83
2022-12-04T06:40:00.213Z,24.23
2022-12-04T06:42:29.585Z,23.20
2022-12-04T06:44:57.755Z,22.83
2022-12-04T06:47:25.851Z,23.63
2022-12-04T06:49:54.221Z,24.53
2022-12-04T06:52:22.474Z,22.27
2022-12-04T06:54:50.612Z,21.00
2022-12-04T06:57:18.536Z,27.40
2022-12-04T06:59:47.801Z,32.97
2022-12-04T07:02:15.794Z,27.97
2022-12-04T07:04:44.028Z,25.40
2022-12-04T07:07:13.271Z,25.97
2022-12-04T07:09:41.212Z,22.63
2022-12-04T07:12:09.196Z,22.20
2022-12-04T07:14:37.125Z,21.90
2022-12-04T07:17:06.680Z,24.40
2022-12-04T07:19:34.664Z,23.57
2022-12-04T07:22:02.545Z,23.07
2022-12-04T07:24:30.466Z,28.43
2022-12-04T07:26:58.404Z,20.57
2022-12-04T07:29:26.293Z,23.90
2022-12-04T07:31:54.313Z,22.47
2022-12-04T07:34:23.623Z,23.33
2022-12-04T07:36:51.571Z,26.23
2022-12-04T07:39:19.496Z,22.10
2022-12-04T07:41:47.403Z,29.23
2022-12-04T07:44:15.377Z,29.80
2022-12-04T07:46:43.728Z,23.17
2022-12-04T07:49:12.811Z,21.07
2022-12-04T07:51:42.169Z,25.60
2022-12-04T07:54:10.660Z,23.10
2022-12-04T07:56:38.649Z,25.20
2022-12-04T07:59:06.583Z,26.07
2022-12-04T08:01:34.969Z,26.23
2022-12-04T08:04:04.477Z,27.97
2022-12-04T08:06:35.486Z,24.03
2022-12-04T08:09:09.726Z,25.47
2022-12-04T08:11:38.688Z,25.73
2022-12-04T08:14:08.855Z,24.00
2022-12-04T08:16:37.168Z,24.13
2022-12-04T08:19:05.676Z,27.23
2022-12-04T08:21:33.869Z,24.60
2022-12-04T08:24:02.270Z,32.37
2022-12-04T08:26:33.622Z,25.07
2022-12-04T08:29:02.789Z,27.70
2022-12-04T08:31:33.031Z,31.03
2022-12-04T08:34:02.803Z,24.57
2022-12-04T08:36:31.239Z,30.90
2022-12-04T08:38:59.390Z,25.23
2022-12-04T08:41:27.948Z,32.40
2022-12-04T08:43:58.014Z,25.93
2022-12-04T08:46:27.194Z,32.60
2022-12-04T08:48:55.431Z,26.93
2022-12-04T08:51:25.237Z,29.20
2022-12-04T08:53:55.195Z,24.37
2022-12-04T08:56:23.432Z,30.33
2022-12-04T08:58:51.395Z,33.50
2022-12-04T09:01:20.755Z,31.67
2022-12-04T09:03:48.769Z,32.83
2022-12-04T09:06:18.092Z,32.63
2022-12-04T09:08:46.360Z,34.40
2022-12-04T09:11:16.105Z,32.97
2022-12-04T09:13:44.601Z,31.83
2022-12-04T09:16:14.486Z,31.40
2022-12-04T09:18:44.138Z,32.20
2022-12-04T09:21:14.677Z,34.57
2022-12-04T09:23:42.888Z,30.90
2022-12-04T09:26:19.720Z,28.80
2022-12-04T09:28:48.150Z,26.93
2022-12-04T09:31:16.589Z,30.80
2022-12-04T09:33:45.993Z,29.47
2022-12-04T09:36:16.359Z,28.60
2022-12-04T09:38:45.041Z,33.00
2022-12-04T09:41:25.281Z,32.77
2022-12-04T09:43:57.921Z,33.00
2022-12-04T09:46:30.034Z,27.03
2022-12-04T09:49:01.161Z,30.87
2022-12-04T09:51:30.189Z,26.20
2022-12-04T09:54:01.021Z,29.80
2022-12-04T09:56:31.423Z,29.70
2022-12-04T09:59:04.301Z,28.03
2022-12-04T10:01:37.676Z,28.97
2022-12-04T10:04:07.193Z,31.70
2022-12-04T10:06:41.802Z,41.33
2022-12-04T10:09:15.680Z,34.00
2022-12-04T10:11:51.090Z,27.27
2022-12-04T10:14:34.874Z,31.13
2022-12-04T10:17:27.823Z,31.27
2022-12-04T10:20:05.266Z,27.27
2022-12-04T10:22:38.438Z,24.60
2022-12-04T10:25:10.181Z,25.87
2022-12-04T10:27:42.559Z,27.90
2022-12-04T10:30:18.069Z,26.30
2022-12-04T10:32:46.708Z,29.23
2022-12-04T10:35:22.260Z,29.97
2022-12-04T10:37:53.982Z,29.00
2022-12-04T10:40:24.650Z,27.63
2022-12-04T10:42:56.801Z,24.87
2022-12-04T10:45:25.153Z,26.23
2022-12-04T10:47:53.815Z,28.47
2022-12-04T10:50:24.658Z,31.87
2022-12-04T10:52:52.777Z,22.40
2022-12-04T10:55:30.134Z,29.13
2022-12-04T10:57:58.016Z,27.70
2022-12-04T11:00:29.796Z,27.67
2022-12-04T11:03:01.041Z,25.57
2022-12-04T11:05:33.303Z,26.40
2022-12-04T11:08:02.541Z,25.83
2022-12-04T11:10:35.795Z,28.57
2022-12-04T11:13:05.471Z,26.67
2022-12-04T11:15:36.663Z,23.93
2022-12-04T11:18:14.294Z,26.20
2022-12-04T11:20:47.008Z,27.73
2022-12-04T11:23:16.577Z,26.13
2022-12-04T11:25:48.099Z,35.13
2022-12-04T11:28:39.787Z,24.93
2022-12-04T11:31:08.238Z,22.77
2022-12-04T11:33:39.780Z,28.00
2022-12-04T11:36:21.120Z,24.27
2022-12-04T11:38:49.563Z,27.97
2022-12-04T11:41:26.933Z,24.67
2022-12-04T11:43:59.988Z,26.10
2022-12-04T11:46:30.144Z,23.57
2022-12-04T11:48:58.214Z,24.67
2022-12-04T11:51:36.469Z,26.60
2022-12-04T11:54:09.296Z,21.00
2022-12-04T11:56:41.578Z,23.87
2022-12-04T11:59:30.268Z,23.90
2022-12-04T12:02:03.035Z,25.03
2022-12-04T12:04:44.174Z,19.27
2022-12-04T12:07:21.658Z,24.83
2022-12-04T12:09:57.297Z,22.53
2022-12-04T12:12:34.265Z,21.13
2022-12-04T12:15:09.518Z,21.13
2022-12-04T12:17:43.109Z,24.37
2022-12-04T12:20:16.089Z,25.67
2022-12-04T12:23:00.271Z,23.60
2022-12-04T12:25:30.943Z,21.10
2022-12-04T12:28:06.885Z,23.50
2022-12-04T12:30:43.996Z,26.33
2022-12-04T12:33:18.738Z,22.03
2022-12-04T12:35:52.522Z,17.93
2022-12-04T12:38:25.457Z,22.07
2022-12-04T12:40:57.616Z,23.60
2022-12-04T12:43:30.397Z,22.17
2022-12-04T12:46:04.385Z,24.90
2022-12-04T12:48:37.329Z,26.70
2022-12-04T12:51:29.187Z,24.03
2022-12-04T12:54:05.043Z,21.57
2022-12-04T12:56:38.428Z,24.50
2022-12-04T12:59:10.257Z,23.40
2022-12-04T13:01:45.033Z,25.00
2022-12-04T13:04:15.921Z,23.50
2022-12-04T13:06:45.763Z,24.97
2022-12-04T13:09:19.956Z,22.13
2022-12-04T13:11:51.405Z,23.70
2022-12-04T13:14:19.366Z,25.27
2022-12-04T13:16:49.233Z,20.53
2022-12-04T13:19:19.973Z,22.17
2022-12-04T13:21:51.038Z,24.43
2022-12-04T13:24:36.469Z,23.77
2022-12-04T13:27:08.833Z,24.13
2022-12-04T13:29:45.986Z,20.03
2022-12-04T13:32:46.201Z,24.73
2022-12-04T13:35:21.824Z,24.17
2022-12-04T13:38:01.423Z,20.50
2022-12-04T13:40:33.896Z,20.13
2022-12-04T13:43:28.455Z,22.70
2022-12-04T13:45:58.011Z,22.13
2022-12-04T13:48:39.634Z,19.63
2022-12-04T13:51:40.121Z,21.73
2022-12-04T13:54:41.313Z,19.80
2022-12-04T13:57:21.167Z,21.17
2022-12-04T13:59:50.234Z,21.83
2022-12-04T14:02:37.849Z,20.73
2022-12-04T14:05:08.445Z,21.47
2022-12-04T14:07:38.109Z,20.40
2022-12-04T14:10:08.874Z,22.83
2022-12-04T14:12:41.063Z,22.20
2022-12-04T14:15:12.571Z,20.10
2022-12-04T14:17:40.924Z,20.30
2022-12-04T14:20:22.176Z,20.43
2022-12-04T14:22:50.172Z,20.80
2022-12-04T14:25:35.744Z,17.27
2022-12-04T14:28:24.949Z,21.37
2022-12-04T14:31:07.782Z,19.97
2022-12-04T14:33:39.725Z,17.93
2022-12-04T14:36:11.161Z,20.90
2022-12-04T14:38:39.788Z,19.13
2022-12-04T14:41:08.088Z,18.07
2022-12-04T14:43:40.892Z,16.50
2022-12-04T14:46:13.935Z,21.47
2022-12-04T14:48:48.859Z,21.37
2022-12-04T14:51:25.591Z,22.77
2022-12-04T14:54:01.730Z,20.13
2022-12-04T14:56:52.124Z,24.30
2022-12-04T14:59:23.879Z,27.20
2022-12-04T15:01:52.748Z,21.50
2022-12-04T15:04:24.986Z,21.70
2022-12-04T15:06:59.749Z,19.20
2022-12-04T15:09:46.529Z,21.53
2022-12-04T15:12:37.568Z,22.10
2022-12-04T15:15:16.248Z,18.97
2022-12-04T15:17:44.271Z,22.43
2022-12-04T15:20:16.298Z,23.17
2022-12-04T15:22:44.310Z,22.57
2022-12-04T15:25:17.671Z,25.80
2022-12-04T15:27:46.946Z,21.60
2022-12-04T15:30:19.790Z,23.40
2022-12-04T15:32:50.513Z,21.67
2022-12-04T15:35:22.291Z,19.43
2022-12-04T15:37:50.324Z,24.63
2022-12-04T15:40:23.047Z,19.57
2022-12-04T15:42:51.481Z,23.97
2022-12-04T15:45:41.502Z,24.73
2022-12-04T15:48:10.487Z,20.27
2022-12-04T15:50:38.512Z,19.40
2022-12-04T15:53:09.731Z,25.27
2022-12-04T15:55:41.210Z,20.90
2022-12-04T15:58:17.831Z,20.23
2022-12-04T16:00:47.220Z,20.67
2022-12-04T16:03:24.668Z,21.20
2022-12-04T16:06:04.020Z,24.33
2022-12-04T16:08:33.493Z,27.80
2022-12-04T16:11:02.865Z,27.63
2022-12-04T16:13:33.396Z,22.23
2022-12-04T16:16:06.427Z,23.70
2022-12-04T16:18:34.476Z,27.10
2022-12-04T16:21:02.560Z,28.60
2022-12-04T16:23:30.476Z,25.27
2022-12-04T16:25:58.614Z,21.43
2022-12-04T16:28:26.562Z,22.47
2022-12-04T16:30:54.653Z,23.90
2022-12-04T16:33:24.243Z,23.23
2022-12-04T16:35:52.146Z,25.47
2022-12-04T16:38:20.073Z,19.47
2022-12-04T16:40:49.057Z,20.53
2022-12-04T16:43:18.184Z,21.80
2022-12-04T16:45:48.331Z,29.70
2022-12-04T16:48:16.472Z,23.37
2022-12-04T16:50:46.265Z,24.73
2022-12-04T16:53:16.912Z,26.43
2022-12-04T16:55:46.821Z,26.80
2022-12-04T16:58:15.238Z,25.10
2022-12-04T17:00:44.524Z,23.33
2022-12-04T17:03:18.921Z,24.73
2022-12-04T17:05:48.225Z,25.20
2022-12-04T17:08:16.242Z,23.93
2022-12-04T17:10:44.173Z,24.80
2022-12-04T17:13:12.172Z,25.33
2022-12-04T17:15:40.249Z,21.67
2022-12-04T17:18:12.177Z,24.10
2022-12-04T17:20:42.241Z,19.37
2022-12-04T17:23:13.098Z,22.23
2022-12-04T17:25:41.254Z,20.17
2022-12-04T17:28:09.205Z,19.40
2022-12-04T17:30:37.132Z,25.03
2022-12-04T17:33:05.242Z,21.00
2022-12-04T17:35:33.270Z,25.50
2022-12-04T17:38:05.918Z,20.23
2022-12-04T17:40:35.669Z,29.97
2022-12-04T17:43:03.650Z,23.00
2022-12-04T17:45:31.753Z,23.30
2022-12-04T17:48:00.623Z,22.33
2022-12-04T17:50:28.544Z,23.97
2022-12-04T17:52:56.518Z,23.73
2022-12-04T17:55:24.399Z,21.80
2022-12-04T17:57:53.685Z,20.47
2022-12-04T18:00:21.718Z,21.90
2022-12-04T18:02:53.186Z,24.40
2022-12-04T18:05:21.611Z,22.27
2022-12-04T18:07:49.591Z,21.80
2022-12-04T18:10:17.692Z,25.90
2022-12-04T18:12:45.642Z,19.83
2022-12-04T18:15:14.927Z,22.30
2022-12-04T18:17:42.888Z,22.10
2022-12-04T18:20:11.466Z,26.23
2022-12-04T18:22:39.564Z,27.73
2022-12-04T18:25:09.069Z,24.33
2022-12-04T18:27:41.641Z,23.77
2022-12-04T18:30:10.666Z,22.23
2022-12-04T18:32:40.085Z,21.47
2022-12-04T18:35:08.745Z,27.23
2022-12-04T18:37:36.642Z,22.23
2022-12-04T18:40:07.093Z,20.90
2022-12-04T18:42:35.418Z,20.03
2022-12-04T18:45:03.380Z,20.43
2022-12-04T18:47:31.326Z,21.73
2022-12-04T18:50:00.823Z,20.83
2022-12-04T18:52:28.809Z,21.60
2022-12-04T18:54:56.814Z,21.43
2022-12-04T18:57:24.706Z,18.43
2022-12-04T18:59:52.686Z,19.63
2022-12-04T19:02:20.627Z,22.13
2022-12-04T19:04:48.681Z,23.93
2022-12-04T19:07:18.756Z,23.67
2022-12-04T19:10:10.316Z,20.33
2022-12-04T19:12:34.760Z,22.87
2022-12-04T19:15:02.725Z,19.97
2022-12-04T19:17:30.632Z,15.13
2022-12-04T19:19:59.014Z,23.60
2022-12-04T19:22:30.316Z,19.50
2022-12-04T19:24:58.461Z,16.93
2022-12-04T19:27:27.673Z,19.77
2022-12-04T19:29:55.915Z,23.23
2022-12-04T19:32:24.043Z,20.67
2022-12-04T19:34:52.665Z,21.70
2022-12-04T19:37:20.560Z,22.37
2022-12-04T19:39:49.866Z,22.07
2022-12-04T19:42:17.804Z,19.93
2022-12-04T19:44:48.891Z,19.60
2022-12-04T19:47:17.640Z,18.50
2022-12-04T19:49:46.550Z,21.10
2022-12-04T19:52:14.600Z,19.37
2022-12-04T19:54:42.565Z,21.97
2022-12-04T19:57:12.882Z,16.57
2022-12-04T19:59:45.924Z,20.70
2022-12-04T20:02:14.570Z,19.40
2022-12-04T20:04:43.268Z,15.70
2022-12-04T20:07:11.228Z,15.60
2022-12-04T20:09:39.269Z,17.40
2022-12-04T20:12:07.744Z,17.77
2022-12-04T20:14:37.047Z,13.67
2022-12-04T20:17:05.309Z,14.73
2022-12-04T20:19:33.506Z,19.03
2022-12-04T20:22:01.473Z,18.97
2022-12-04T20:24:29.398Z,19.23
2022-12-04T20:26:57.617Z,20.70
2022-12-04T20:29:25.563Z,22.10
2022-12-04T20:31:54.897Z,16.77
2022-12-04T20:34:22.811Z,18.27
2022-12-04T20:36:50.885Z,19.80
2022-12-04T20:39:20.696Z,17.60
2022-12-04T20:41:48.918Z,18.13
2022-12-04T20:44:18.924Z,16.73
2022-12-04T20:46:47.042Z,16.77
2022-12-04T20:49:21.978Z,20.70
2022-12-04T20:51:51.289Z,16.80
2022-12-04T20:54:20.562Z,17.90
2022-12-04T20:56:49.237Z,18.27
2022-12-04T20:59:18.645Z,14.43
2022-12-04T21:01:47.031Z,17.37
2022-12-04T21:04:18.059Z,18.77
2022-12-04T21:06:46.737Z,18.03
2022-12-04T21:09:17.230Z,18.87
2022-12-04T21:11:46.897Z,17.07
2022-12-04T21:14:33.980Z,17.60
2022-12-04T21:17:02.514Z,19.33
2022-12-04T21:19:32.169Z,17.67
2022-12-04T21:22:00.108Z,19.27
2022-12-04T21:24:28.782Z,20.10
2022-12-04T21:26:57.053Z,21.77
2022-12-04T21:29:25.122Z,19.77
2022-12-04T21:31:53.051Z,17.93
2022-12-04T21:34:20.999Z,18.77
2022-12-04T21:36:50.398Z,19.33
2022-12-04T21:39:18.271Z,18.47
2022-12-04T21:42:03.388Z,17.53
2022-12-04T21:44:31.478Z,18.93
2022-12-04T21:46:59.465Z,19.80
2022-12-04T21:49:27.510Z,20.03
2022-12-04T21:51:58.446Z,23.03
2022-12-04T21:54:26.663Z,21.57
2022-12-04T21:56:55.141Z,18.97
2022-12-04T21:59:23.491Z,19.70
2022-12-04T22:01:51.501Z,21.23
2022-12-04T22:04:19.523Z,17.07
2022-12-04T22:06:47.522Z,17.13
2022-12-04T22:09:16.848Z,20.77
2022-12-04T22:11:45.264Z,23.67
2022-12-04T22:14:13.801Z,16.40
2022-12-04T22:16:43.258Z,17.60
2022-12-04T22:19:11.705Z,18.13
2022-12-04T22:21:40.120Z,18.33
2022-12-04T22:24:10.461Z,21.07
2022-12-04T22:26:40.533Z,18.23
2022-12-04T22:29:41.552Z,19.70
2022-12-04T22:31:56.715Z,18.90
2022-12-04T22:34:24.583Z,18.03
2022-12-04T22:36:52.456Z,21.80
2022-12-04T22:39:20.541Z,19.47
2022-12-04T22:41:49.849Z,15.70
2022-12-04T22:44:17.731Z,18.37
2022-12-04T22:46:45.802Z,22.23
2022-12-04T22:49:13.796Z,17.30
2022-12-04T22:51:41.897Z,25.13
2022-12-04T22:54:14.330Z,21.73
2022-12-04T22:56:43.352Z,16.33
2022-12-04T22:59:12.647Z,20.23
2022-12-04T23:01:40.549Z,20.53
2022-12-04T23:04:08.568Z,20.03
2022-12-04T23:06:36.557Z,18.03
2022-12-04T23:09:06.565Z,18.37
2022-12-04T23:11:34.696Z,22.07
2022-12-04T23:14:03.978Z,16.80
2022-12-04T23:16:36.554Z,22.60
2022-12-04T23:19:04.845Z,18.77
2022-12-04T23:21:32.969Z,18.70
2022-12-04T23:24:00.941Z,21.50
2022-12-04T23:26:31.274Z,21.07
2022-12-04T23:28:59.268Z,21.07
2022-12-04T23:31:27.250Z,19.80
2022-12-04T23:33:56.883Z,17.23
2022-12-04T23:36:24.856Z,24.90
2022-12-04T23:38:52.989Z,20.17
2022-12-04T23:41:22.756Z,19.10
2022-12-04T23:43:52.859Z,24.57
2022-12-04T23:46:22.886Z,20.70
2022-12-04T23:48:51.136Z,21.50
2022-12-04T23:51:21.108Z,24.53
2022-12-04T23:53:49.317Z,21.07
2022-12-04T23:56:19.748Z,21.60
2022-12-04T23:58:50.125Z,19.40
